sensor_id;sensor_type;location;lat;lon;timestamp;pressure;altitude;pressure_sealevel;temperature;humidity
53506;BME280;39388;50.936;6.848;2023-01-28T00:01:26;102146.06;;;4.16;74.16
53506;BME280;39388;50.936;6.848;2023-01-28T00:03:56;102150.91;;;4.10;73.49
53506;BME280;39388;50.936;6.848;2023-01-28T00:06:27;102142.81;;;4.00;73.75
53506;BME280;39388;50.936;6.848;2023-01-28T00:08:57;102143.50;;;3.96;73.96
53506;BME280;39388;50.936;6.848;2023-01-28T00:11:28;102155.16;;;3.91;74.31
53506;BME280;39388;50.936;6.848;2023-01-28T00:13:58;102142.06;;;3.83;74.39
53506;BME280;39388;50.936;6.848;2023-01-28T00:16:29;102142.84;;;3.82;74.03
53506;BME280;39388;50.936;6.848;2023-01-28T00:19:00;102139.81;;;3.72;74.13
53506;BME280;39388;50.936;6.848;2023-01-28T00:21:30;102136.88;;;3.64;73.98
53506;BME280;39388;50.936;6.848;2023-01-28T00:24:00;102152.28;;;3.65;74.35
53506;BME280;39388;50.936;6.848;2023-01-28T00:26:31;102140.13;;;3.60;74.83
53506;BME280;39388;50.936;6.848;2023-01-28T00:29:01;102145.13;;;3.58;74.78
53506;BME280;39388;50.936;6.848;2023-01-28T00:31:32;102142.31;;;3.52;74.50
53506;BME280;39388;50.936;6.848;2023-01-28T00:34:04;102143.97;;;3.51;74.68
53506;BME280;39388;50.936;6.848;2023-01-28T00:36:34;102141.38;;;3.50;75.26
53506;BME280;39388;50.936;6.848;2023-01-28T00:39:13;102135.97;;;3.44;75.23
53506;BME280;39388;50.936;6.848;2023-01-28T00:41:44;102136.91;;;3.46;75.92
53506;BME280;39388;50.936;6.848;2023-01-28T00:44:14;102151.84;;;3.56;75.61
53506;BME280;39388;50.936;6.848;2023-01-28T00:46:45;102141.63;;;3.56;75.56
53506;BME280;39388;50.936;6.848;2023-01-28T00:49:15;102135.81;;;3.59;75.22
53506;BME280;39388;50.936;6.848;2023-01-28T00:51:46;102143.75;;;3.65;75.04
53506;BME280;39388;50.936;6.848;2023-01-28T00:54:17;102149.94;;;3.70;74.96
53506;BME280;39388;50.936;6.848;2023-01-28T00:56:48;102152.72;;;3.75;75.10
53506;BME280;39388;50.936;6.848;2023-01-28T00:59:18;102144.91;;;3.72;74.92
53506;BME280;39388;50.936;6.848;2023-01-28T01:01:49;102148.50;;;3.75;75.38
53506;BME280;39388;50.936;6.848;2023-01-28T01:04:19;102154.50;;;3.77;75.53
53506;BME280;39388;50.936;6.848;2023-01-28T01:06:55;102149.34;;;3.76;75.63
53506;BME280;39388;50.936;6.848;2023-01-28T01:09:26;102126.03;;;3.68;75.10
53506;BME280;39388;50.936;6.848;2023-01-28T01:11:56;102140.00;;;3.76;75.46
53506;BME280;39388;50.936;6.848;2023-01-28T01:14:26;102135.44;;;3.69;75.14
53506;BME280;39388;50.936;6.848;2023-01-28T01:16:57;102135.38;;;3.67;75.58
53506;BME280;39388;50.936;6.848;2023-01-28T01:19:27;102136.19;;;3.66;75.28
53506;BME280;39388;50.936;6.848;2023-01-28T01:21:58;102151.69;;;3.71;75.59
53506;BME280;39388;50.936;6.848;2023-01-28T01:24:29;102142.16;;;3.67;75.45
53506;BME280;39388;50.936;6.848;2023-01-28T01:27:02;102142.22;;;3.68;75.26
53506;BME280;39388;50.936;6.848;2023-01-28T01:29:35;102147.19;;;3.65;75.41
53506;BME280;39388;50.936;6.848;2023-01-28T01:32:05;102155.78;;;3.67;75.44
53506;BME280;39388;50.936;6.848;2023-01-28T01:34:36;102138.16;;;3.54;75.43
53506;BME280;39388;50.936;6.848;2023-01-28T01:37:06;102155.50;;;3.61;75.39
53506;BME280;39388;50.936;6.848;2023-01-28T01:39:37;102146.69;;;3.54;75.19
53506;BME280;39388;50.936;6.848;2023-01-28T01:42:12;102152.78;;;3.58;75.30
53506;BME280;39388;50.936;6.848;2023-01-28T01:44:58;102156.03;;;3.54;75.19
53506;BME280;39388;50.936;6.848;2023-01-28T01:50:26;102142.00;;;3.46;75.50
53506;BME280;39388;50.936;6.848;2023-01-28T01:53:02;102130.50;;;3.36;75.29
53506;BME280;39388;50.936;6.848;2023-01-28T01:55:36;102145.31;;;3.43;75.59
53506;BME280;39388;50.936;6.848;2023-01-28T01:58:11;102153.53;;;3.37;75.63
53506;BME280;39388;50.936;6.848;2023-01-28T02:00:42;102143.63;;;3.26;75.54
53506;BME280;39388;50.936;6.848;2023-01-28T02:03:15;102157.09;;;3.23;75.92
53506;BME280;39388;50.936;6.848;2023-01-28T02:05:49;102155.03;;;3.16;76.15
53506;BME280;39388;50.936;6.848;2023-01-28T02:08:19;102168.66;;;3.16;76.43
53506;BME280;39388;50.936;6.848;2023-01-28T02:11:01;102167.41;;;3.08;76.42
53506;BME280;39388;50.936;6.848;2023-01-28T02:13:38;102155.22;;;3.02;77.04
53506;BME280;39388;50.936;6.848;2023-01-28T02:16:10;102153.56;;;3.03;76.44
53506;BME280;39388;50.936;6.848;2023-01-28T02:18:41;102156.59;;;2.96;76.77
53506;BME280;39388;50.936;6.848;2023-01-28T02:30:35;102156.25;;;2.71;76.79
53506;BME280;39388;50.936;6.848;2023-01-28T02:33:17;102159.59;;;2.70;77.06
53506;BME280;39388;50.936;6.848;2023-01-28T02:35:53;102166.31;;;2.68;77.19
53506;BME280;39388;50.936;6.848;2023-01-28T02:38:31;102169.78;;;2.70;76.78
53506;BME280;39388;50.936;6.848;2023-01-28T02:41:14;102176.38;;;2.67;77.00
53506;BME280;39388;50.936;6.848;2023-01-28T02:43:47;102180.75;;;2.69;77.51
53506;BME280;39388;50.936;6.848;2023-01-28T02:49:23;102167.09;;;2.67;77.32
53506;BME280;39388;50.936;6.848;2023-01-28T02:52:31;102182.91;;;2.78;77.35
53506;BME280;39388;50.936;6.848;2023-01-28T03:01:19;102197.31;;;2.94;76.93
53506;BME280;39388;50.936;6.848;2023-01-28T03:06:44;102199.19;;;2.98;76.65
53506;BME280;39388;50.936;6.848;2023-01-28T03:09:18;102202.69;;;3.00;77.01
53506;BME280;39388;50.936;6.848;2023-01-28T03:11:56;102200.81;;;2.96;76.67
53506;BME280;39388;50.936;6.848;2023-01-28T03:15:03;102203.34;;;2.96;76.75
53506;BME280;39388;50.936;6.848;2023-01-28T03:18:03;102191.41;;;2.95;76.60
53506;BME280;39388;50.936;6.848;2023-01-28T03:23:59;102204.06;;;2.93;76.62
53506;BME280;39388;50.936;6.848;2023-01-28T03:29:50;102206.59;;;2.93;76.88
53506;BME280;39388;50.936;6.848;2023-01-28T03:32:42;102204.84;;;2.92;76.94
53506;BME280;39388;50.936;6.848;2023-01-28T03:35:33;102180.69;;;2.84;76.90
53506;BME280;39388;50.936;6.848;2023-01-28T03:38:23;102201.72;;;2.98;76.60
53506;BME280;39388;50.936;6.848;2023-01-28T03:41:11;102206.19;;;3.02;76.49
53506;BME280;39388;50.936;6.848;2023-01-28T03:43:41;102216.16;;;2.98;76.79
53506;BME280;39388;50.936;6.848;2023-01-28T03:46:14;102200.94;;;2.99;76.97
53506;BME280;39388;50.936;6.848;2023-01-28T03:48:45;102208.00;;;3.05;76.96
53506;BME280;39388;50.936;6.848;2023-01-28T03:51:15;102208.53;;;2.98;76.35
53506;BME280;39388;50.936;6.848;2023-01-28T03:53:46;102201.84;;;3.00;76.96
53506;BME280;39388;50.936;6.848;2023-01-28T03:56:17;102197.69;;;3.02;76.76
53506;BME280;39388;50.936;6.848;2023-01-28T03:58:49;102197.53;;;2.99;76.83
53506;BME280;39388;50.936;6.848;2023-01-28T04:01:25;102207.78;;;3.00;77.01
53506;BME280;39388;50.936;6.848;2023-01-28T04:03:55;102211.38;;;3.04;76.84
53506;BME280;39388;50.936;6.848;2023-01-28T04:06:26;102209.75;;;3.06;76.66
53506;BME280;39388;50.936;6.848;2023-01-28T04:08:58;102216.78;;;3.10;76.84
53506;BME280;39388;50.936;6.848;2023-01-28T04:11:28;102219.16;;;3.07;76.55
53506;BME280;39388;50.936;6.848;2023-01-28T04:13:58;102224.59;;;3.13;76.17
53506;BME280;39388;50.936;6.848;2023-01-28T04:16:29;102229.63;;;3.12;76.51
53506;BME280;39388;50.936;6.848;2023-01-28T04:18:59;102227.13;;;3.13;76.78
53506;BME280;39388;50.936;6.848;2023-01-28T04:21:29;102226.34;;;3.14;76.39
53506;BME280;39388;50.936;6.848;2023-01-28T04:24:00;102233.25;;;3.17;76.70
53506;BME280;39388;50.936;6.848;2023-01-28T04:26:31;102231.50;;;3.16;76.30
53506;BME280;39388;50.936;6.848;2023-01-28T04:29:01;102226.41;;;3.16;76.60
53506;BME280;39388;50.936;6.848;2023-01-28T04:31:33;102226.34;;;3.14;76.25
53506;BME280;39388;50.936;6.848;2023-01-28T04:34:03;102238.44;;;3.18;76.53
53506;BME280;39388;50.936;6.848;2023-01-28T04:36:33;102233.97;;;3.14;76.27
53506;BME280;39388;50.936;6.848;2023-01-28T04:39:04;102225.31;;;3.11;76.71
53506;BME280;39388;50.936;6.848;2023-01-28T04:41:34;102236.59;;;3.16;76.57
53506;BME280;39388;50.936;6.848;2023-01-28T04:44:05;102220.84;;;3.06;76.43
53506;BME280;39388;50.936;6.848;2023-01-28T04:46:35;102239.81;;;3.12;76.62
53506;BME280;39388;50.936;6.848;2023-01-28T04:49:05;102241.78;;;3.17;76.49
53506;BME280;39388;50.936;6.848;2023-01-28T04:51:36;102240.09;;;3.18;76.08
53506;BME280;39388;50.936;6.848;2023-01-28T04:54:06;102234.84;;;3.15;76.59
53506;BME280;39388;50.936;6.848;2023-01-28T04:56:37;102235.72;;;3.15;76.00
53506;BME280;39388;50.936;6.848;2023-01-28T04:59:07;102239.25;;;3.17;76.07
53506;BME280;39388;50.936;6.848;2023-01-28T05:01:37;102238.34;;;3.17;75.77
53506;BME280;39388;50.936;6.848;2023-01-28T05:04:08;102256.56;;;3.25;76.24
53506;BME280;39388;50.936;6.848;2023-01-28T05:06:38;102257.38;;;3.23;76.02
53506;BME280;39388;50.936;6.848;2023-01-28T05:09:09;102243.66;;;3.21;76.42
53506;BME280;39388;50.936;6.848;2023-01-28T05:11:39;102237.63;;;3.19;75.83
53506;BME280;39388;50.936;6.848;2023-01-28T05:14:10;102240.03;;;3.16;76.10
53506;BME280;39388;50.936;6.848;2023-01-28T05:16:40;102222.75;;;3.11;76.14
53506;BME280;39388;50.936;6.848;2023-01-28T05:19:10;102248.94;;;3.25;75.84
53506;BME280;39388;50.936;6.848;2023-01-28T05:21:41;102243.81;;;3.25;76.39
53506;BME280;39388;50.936;6.848;2023-01-28T05:24:11;102238.88;;;3.28;76.14
53506;BME280;39388;50.936;6.848;2023-01-28T05:26:41;102250.03;;;3.30;75.90
53506;BME280;39388;50.936;6.848;2023-01-28T05:29:12;102230.06;;;3.21;75.89
53506;BME280;39388;50.936;6.848;2023-01-28T05:31:42;102243.09;;;3.27;76.16
53506;BME280;39388;50.936;6.848;2023-01-28T05:34:12;102242.16;;;3.25;75.93
53506;BME280;39388;50.936;6.848;2023-01-28T05:36:43;102241.34;;;3.26;76.04
53506;BME280;39388;50.936;6.848;2023-01-28T05:39:13;102243.03;;;3.26;75.71
53506;BME280;39388;50.936;6.848;2023-01-28T05:41:44;102252.50;;;3.28;76.34
53506;BME280;39388;50.936;6.848;2023-01-28T05:44:14;102244.06;;;3.29;75.95
53506;BME280;39388;50.936;6.848;2023-01-28T05:46:44;102236.19;;;3.25;76.27
53506;BME280;39388;50.936;6.848;2023-01-28T05:49:15;102241.50;;;3.29;76.13
53506;BME280;39388;50.936;6.848;2023-01-28T05:51:46;102242.41;;;3.30;76.06
53506;BME280;39388;50.936;6.848;2023-01-28T05:54:17;102242.47;;;3.31;76.10
53506;BME280;39388;50.936;6.848;2023-01-28T05:56:47;102252.75;;;3.33;76.40
53506;BME280;39388;50.936;6.848;2023-01-28T05:59:18;102259.81;;;3.38;75.96
53506;BME280;39388;50.936;6.848;2023-01-28T06:01:48;102249.09;;;3.28;76.21
53506;BME280;39388;50.936;6.848;2023-01-28T06:04:19;102262.00;;;3.31;76.07
53506;BME280;39388;50.936;6.848;2023-01-28T06:06:49;102254.19;;;3.28;75.90
53506;BME280;39388;50.936;6.848;2023-01-28T06:09:19;102263.50;;;3.27;75.79
53506;BME280;39388;50.936;6.848;2023-01-28T06:11:50;102277.28;;;3.31;75.72
53506;BME280;39388;50.936;6.848;2023-01-28T06:14:20;102278.09;;;3.30;75.66
53506;BME280;39388;50.936;6.848;2023-01-28T06:16:51;102270.22;;;3.25;75.94
53506;BME280;39388;50.936;6.848;2023-01-28T06:19:21;102278.66;;;3.24;76.03
53506;BME280;39388;50.936;6.848;2023-01-28T06:21:51;102276.97;;;3.25;75.64
53506;BME280;39388;50.936;6.848;2023-01-28T06:24:22;102276.97;;;3.25;75.57
53506;BME280;39388;50.936;6.848;2023-01-28T06:26:52;102290.66;;;3.27;76.21
53506;BME280;39388;50.936;6.848;2023-01-28T06:29:22;102277.69;;;3.22;75.37
53506;BME280;39388;50.936;6.848;2023-01-28T06:31:53;102283.50;;;3.19;75.20
53506;BME280;39388;50.936;6.848;2023-01-28T06:34:23;102286.94;;;3.20;75.12
53506;BME280;39388;50.936;6.848;2023-01-28T06:36:54;102283.59;;;3.21;75.35
53506;BME280;39388;50.936;6.848;2023-01-28T06:39:24;102281.22;;;3.24;75.22
53506;BME280;39388;50.936;6.848;2023-01-28T06:41:57;102291.31;;;3.22;75.31
53506;BME280;39388;50.936;6.848;2023-01-28T06:44:27;102294.66;;;3.21;75.19
53506;BME280;39388;50.936;6.848;2023-01-28T06:46:57;102275.56;;;3.13;75.52
53506;BME280;39388;50.936;6.848;2023-01-28T06:49:28;102274.03;;;3.17;75.13
53506;BME280;39388;50.936;6.848;2023-01-28T06:51:58;102277.53;;;3.19;74.90
53506;BME280;39388;50.936;6.848;2023-01-28T06:54:29;102280.94;;;3.19;74.49
53506;BME280;39388;50.936;6.848;2023-01-28T06:56:59;102275.84;;;3.19;74.49
53506;BME280;39388;50.936;6.848;2023-01-28T06:59:29;102282.78;;;3.22;74.48
53506;BME280;39388;50.936;6.848;2023-01-28T07:02:00;102285.97;;;3.18;74.20
53506;BME280;39388;50.936;6.848;2023-01-28T07:04:30;102283.44;;;3.18;74.35
53506;BME280;39388;50.936;6.848;2023-01-28T07:07:01;102266.41;;;3.00;74.66
53506;BME280;39388;50.936;6.848;2023-01-28T07:09:31;102287.50;;;3.14;74.42
53506;BME280;39388;50.936;6.848;2023-01-28T07:12:01;102301.03;;;3.13;74.61
53506;BME280;39388;50.936;6.848;2023-01-28T07:14:34;102286.47;;;3.11;74.16
53506;BME280;39388;50.936;6.848;2023-01-28T07:17:04;102293.34;;;3.12;74.27
53506;BME280;39388;50.936;6.848;2023-01-28T07:19:35;102302.97;;;3.17;73.84
53506;BME280;39388;50.936;6.848;2023-01-28T07:22:05;102307.09;;;3.15;73.87
53506;BME280;39388;50.936;6.848;2023-01-28T07:24:35;102296.69;;;3.11;73.55
53506;BME280;39388;50.936;6.848;2023-01-28T07:27:06;102299.06;;;3.07;73.81
53506;BME280;39388;50.936;6.848;2023-01-28T07:29:36;102297.47;;;3.10;74.23
53506;BME280;39388;50.936;6.848;2023-01-28T07:32:07;102300.25;;;3.14;73.79
53506;BME280;39388;50.936;6.848;2023-01-28T07:34:37;102296.81;;;3.14;73.87
53506;BME280;39388;50.936;6.848;2023-01-28T07:37:10;102297.69;;;3.14;73.47
53506;BME280;39388;50.936;6.848;2023-01-28T07:39:41;102298.88;;;3.21;73.73
53506;BME280;39388;50.936;6.848;2023-01-28T07:42:12;102306.75;;;3.26;73.28
53506;BME280;39388;50.936;6.848;2023-01-28T07:44:42;102299.06;;;3.24;73.22
53506;BME280;39388;50.936;6.848;2023-01-28T07:47:13;102288.69;;;3.21;73.14
53506;BME280;39388;50.936;6.848;2023-01-28T07:49:43;102299.19;;;3.27;73.17
53506;BME280;39388;50.936;6.848;2023-01-28T07:52:13;102288.44;;;3.33;73.33
53506;BME280;39388;50.936;6.848;2023-01-28T07:54:44;102279.84;;;3.31;72.76
53506;BME280;39388;50.936;6.848;2023-01-28T07:57:15;102286.75;;;3.33;73.08
53506;BME280;39388;50.936;6.848;2023-01-28T07:59:52;102287.63;;;3.34;72.16
53506;BME280;39388;50.936;6.848;2023-01-28T08:02:22;102304.03;;;3.39;71.66
53506;BME280;39388;50.936;6.848;2023-01-28T08:04:52;102299.81;;;3.40;71.49
53506;BME280;39388;50.936;6.848;2023-01-28T08:07:23;102303.97;;;3.37;71.13
53506;BME280;39388;50.936;6.848;2023-01-28T08:09:53;102309.78;;;3.35;71.45
53506;BME280;39388;50.936;6.848;2023-01-28T08:12:24;102309.06;;;3.37;70.85
53506;BME280;39388;50.936;6.848;2023-01-28T08:14:54;102324.38;;;3.37;70.75
53506;BME280;39388;50.936;6.848;2023-01-28T08:17:26;102325.97;;;3.35;70.96
53506;BME280;39388;50.936;6.848;2023-01-28T08:19:57;102333.44;;;3.32;70.93
53506;BME280;39388;50.936;6.848;2023-01-28T08:22:27;102342.91;;;3.35;70.43
53506;BME280;39388;50.936;6.848;2023-01-28T08:24:57;102327.31;;;3.29;70.29
53506;BME280;39388;50.936;6.848;2023-01-28T08:27:28;102340.22;;;3.32;70.03
53506;BME280;39388;50.936;6.848;2023-01-28T08:29:58;102314.97;;;3.20;70.41
53506;BME280;39388;50.936;6.848;2023-01-28T08:32:29;102334.41;;;3.34;70.22
53506;BME280;39388;50.936;6.848;2023-01-28T08:35:00;102325.06;;;3.35;70.14
53506;BME280;39388;50.936;6.848;2023-01-28T08:37:30;102316.41;;;3.31;70.21
53506;BME280;39388;50.936;6.848;2023-01-28T08:40:01;102335.66;;;3.43;70.15
53506;BME280;39388;50.936;6.848;2023-01-28T08:42:31;102342.66;;;3.47;70.31
53506;BME280;39388;50.936;6.848;2023-01-28T08:45:02;102345.38;;;3.50;69.89
53506;BME280;39388;50.936;6.848;2023-01-28T08:47:33;102346.97;;;3.48;69.75
53506;BME280;39388;50.936;6.848;2023-01-28T08:50:05;102339.09;;;3.43;70.25
53506;BME280;39388;50.936;6.848;2023-01-28T08:52:35;102347.84;;;3.48;69.33
53506;BME280;39388;50.936;6.848;2023-01-28T08:55:06;102355.34;;;3.45;69.32
53506;BME280;39388;50.936;6.848;2023-01-28T08:57:36;102359.56;;;3.45;69.39
53506;BME280;39388;50.936;6.848;2023-01-28T09:00:08;102362.22;;;3.46;69.16
53506;BME280;39388;50.936;6.848;2023-01-28T09:02:39;102359.56;;;3.45;69.09
53506;BME280;39388;50.936;6.848;2023-01-28T09:05:10;102359.28;;;3.38;69.20
53506;BME280;39388;50.936;6.848;2023-01-28T09:07:41;102365.06;;;3.36;68.93
53506;BME280;39388;50.936;6.848;2023-01-28T09:10:12;102358.09;;;3.32;69.31
53506;BME280;39388;50.936;6.848;2023-01-28T09:12:43;102382.63;;;3.46;68.90
53506;BME280;39388;50.936;6.848;2023-01-28T09:15:13;102373.28;;;3.47;69.43
53506;BME280;39388;50.936;6.848;2023-01-28T09:17:44;102369.19;;;3.50;68.85
53506;BME280;39388;50.936;6.848;2023-01-28T09:20:15;102361.47;;;3.49;68.33
53506;BME280;39388;50.936;6.848;2023-01-28T09:22:45;102383.88;;;3.54;68.02
53506;BME280;39388;50.936;6.848;2023-01-28T09:25:15;102374.97;;;3.46;68.14
53506;BME280;39388;50.936;6.848;2023-01-28T09:27:46;102399.09;;;3.53;67.95
53506;BME280;39388;50.936;6.848;2023-01-28T09:30:16;102405.06;;;3.53;68.19
53506;BME280;39388;50.936;6.848;2023-01-28T09:32:50;102402.59;;;3.55;67.58
53506;BME280;39388;50.936;6.848;2023-01-28T09:35:21;102404.09;;;3.51;66.95
53506;BME280;39388;50.936;6.848;2023-01-28T09:37:56;102411.75;;;3.51;67.63
53506;BME280;39388;50.936;6.848;2023-01-28T09:45:46;102419.56;;;3.54;66.93
53506;BME280;39388;50.936;6.848;2023-01-28T09:48:20;102420.13;;;3.49;66.52
53506;BME280;39388;50.936;6.848;2023-01-28T09:50:53;102427.84;;;3.50;67.11
53506;BME280;39388;50.936;6.848;2023-01-28T09:53:29;102427.06;;;3.51;66.88
53506;BME280;39388;50.936;6.848;2023-01-28T09:58:32;102417.59;;;3.49;66.84
53506;BME280;39388;50.936;6.848;2023-01-28T10:03:50;102430.63;;;3.55;66.80
53506;BME280;39388;50.936;6.848;2023-01-28T10:06:39;102430.81;;;3.58;65.96
53506;BME280;39388;50.936;6.848;2023-01-28T10:09:34;102417.59;;;3.65;66.11
53506;BME280;39388;50.936;6.848;2023-01-28T10:18:03;102427.22;;;3.71;65.49
53506;BME280;39388;50.936;6.848;2023-01-28T10:23:21;102413.72;;;3.74;65.65
53506;BME280;39388;50.936;6.848;2023-01-28T10:25:55;102432.72;;;3.79;65.60
53506;BME280;39388;50.936;6.848;2023-01-28T10:28:29;102428.00;;;3.70;65.30
53506;BME280;39388;50.936;6.848;2023-01-28T10:31:00;102430.63;;;3.72;65.51
53506;BME280;39388;50.936;6.848;2023-01-28T10:33:35;102439.19;;;3.72;66.10
53506;BME280;39388;50.936;6.848;2023-01-28T10:36:07;102426.25;;;3.69;66.45
53506;BME280;39388;50.936;6.848;2023-01-28T10:38:38;102437.81;;;3.79;65.76
53506;BME280;39388;50.936;6.848;2023-01-28T10:41:10;102442.97;;;3.80;65.98
53506;BME280;39388;50.936;6.848;2023-01-28T10:43:42;102426.97;;;3.83;65.42
53506;BME280;39388;50.936;6.848;2023-01-28T10:46:27;102435.25;;;3.95;65.07
53506;BME280;39388;50.936;6.848;2023-01-28T10:51:37;102438.66;;;3.96;65.46
53506;BME280;39388;50.936;6.848;2023-01-28T10:54:34;102426.84;;;3.98;65.03
53506;BME280;39388;50.936;6.848;2023-01-28T10:57:09;102428.53;;;3.97;64.56
53506;BME280;39388;50.936;6.848;2023-01-28T10:59:42;102411.34;;;3.77;64.35
53506;BME280;39388;50.936;6.848;2023-01-28T11:05:15;102423.47;;;3.81;65.20
53506;BME280;39388;50.936;6.848;2023-01-28T11:07:50;102426.25;;;3.86;64.99
53506;BME280;39388;50.936;6.848;2023-01-28T11:10:32;102436.91;;;3.95;64.60
53506;BME280;39388;50.936;6.848;2023-01-28T11:13:05;102431.91;;;3.96;64.23
53506;BME280;39388;50.936;6.848;2023-01-28T11:15:45;102418.25;;;3.96;64.20
53506;BME280;39388;50.936;6.848;2023-01-28T11:18:19;102434.97;;;4.07;63.80
53506;BME280;39388;50.936;6.848;2023-01-28T11:20:57;102428.84;;;4.04;64.03
53506;BME280;39388;50.936;6.848;2023-01-28T11:23:37;102426.84;;;3.98;64.22
53506;BME280;39388;50.936;6.848;2023-01-28T11:26:17;102430.44;;;4.02;64.55
53506;BME280;39388;50.936;6.848;2023-01-28T11:28:49;102411.38;;;3.95;63.83
53506;BME280;39388;50.936;6.848;2023-01-28T11:31:21;102419.06;;;4.13;63.85
53506;BME280;39388;50.936;6.848;2023-01-28T11:33:59;102421.56;;;4.11;63.69
53506;BME280;39388;50.936;6.848;2023-01-28T11:36:31;102416.59;;;4.14;63.67
53506;BME280;39388;50.936;6.848;2023-01-28T11:39:17;102420.13;;;4.17;63.35
53506;BME280;39388;50.936;6.848;2023-01-28T11:41:48;102434.69;;;4.19;63.56
53506;BME280;39388;50.936;6.848;2023-01-28T11:52:59;102438.75;;;3.97;62.92
53506;BME280;39388;50.936;6.848;2023-01-28T11:55:52;102423.84;;;3.89;62.67
53506;BME280;39388;50.936;6.848;2023-01-28T11:58:46;102423.75;;;3.87;62.54
53506;BME280;39388;50.936;6.848;2023-01-28T12:09:59;102424.78;;;3.91;61.65
53506;BME280;39388;50.936;6.848;2023-01-28T12:17:57;102411.59;;;3.99;62.80
53506;BME280;39388;50.936;6.848;2023-01-28T12:22:03;102397.56;;;4.08;62.12
53506;BME280;39388;50.936;6.848;2023-01-28T12:35:39;102410.53;;;4.12;61.89
53506;BME280;39388;50.936;6.848;2023-01-28T12:38:14;102409.59;;;4.10;61.52
53506;BME280;39388;50.936;6.848;2023-01-28T12:40:52;102413.56;;;4.05;61.54
53506;BME280;39388;50.936;6.848;2023-01-28T12:46:20;102412.19;;;4.12;61.00
53506;BME280;39388;50.936;6.848;2023-01-28T12:48:58;102409.59;;;4.10;61.29
53506;BME280;39388;50.936;6.848;2023-01-28T12:57:27;102380.41;;;4.05;61.08
53506;BME280;39388;50.936;6.848;2023-01-28T13:00:33;102389.22;;;4.12;60.58
53506;BME280;39388;50.936;6.848;2023-01-28T13:06:05;102360.66;;;4.01;60.46
53506;BME280;39388;50.936;6.848;2023-01-28T13:08:38;102371.28;;;4.10;60.70
53506;BME280;39388;50.936;6.848;2023-01-28T13:11:13;102366.41;;;4.15;60.27
53506;BME280;39388;50.936;6.848;2023-01-28T13:13:45;102360.59;;;4.18;60.23
53506;BME280;39388;50.936;6.848;2023-01-28T13:16:16;102343.94;;;4.08;60.48
53506;BME280;39388;50.936;6.848;2023-01-28T13:18:46;102335.50;;;4.09;60.38
53506;BME280;39388;50.936;6.848;2023-01-28T13:32:00;102305.34;;;4.38;60.94
53506;BME280;39388;50.936;6.848;2023-01-28T13:34:35;102309.31;;;4.31;60.37
53506;BME280;39388;50.936;6.848;2023-01-28T13:37:24;102307.34;;;4.25;61.32
53506;BME280;39388;50.936;6.848;2023-01-28T13:40:24;102284.91;;;4.20;61.31
53506;BME280;39388;50.936;6.848;2023-01-28T13:43:03;102282.16;;;4.15;60.81
53506;BME280;39388;50.936;6.848;2023-01-28T13:45:34;102281.94;;;4.10;61.20
53506;BME280;39388;50.936;6.848;2023-01-28T13:48:21;102305.66;;;4.08;61.46
53506;BME280;39388;50.936;6.848;2023-01-28T13:50:56;102335.63;;;4.12;61.22
53506;BME280;39388;50.936;6.848;2023-01-28T13:53:44;102336.06;;;4.21;60.90
53506;BME280;39388;50.936;6.848;2023-01-28T13:56:20;102320.66;;;4.20;61.06
53506;BME280;39388;50.936;6.848;2023-01-28T14:04:38;102343.53;;;4.17;61.41
53506;BME280;39388;50.936;6.848;2023-01-28T14:13:49;102340.88;;;4.15;61.16
53506;BME280;39388;50.936;6.848;2023-01-28T14:16:32;102344.16;;;4.12;60.93
53506;BME280;39388;50.936;6.848;2023-01-28T14:19:10;102361.47;;;4.18;60.88
53506;BME280;39388;50.936;6.848;2023-01-28T14:21:42;102361.31;;;4.15;61.09
53506;BME280;39388;50.936;6.848;2023-01-28T14:24:17;102372.84;;;4.25;60.56
53506;BME280;39388;50.936;6.848;2023-01-28T14:29:49;102369.13;;;4.18;60.82
53506;BME280;39388;50.936;6.848;2023-01-28T14:32:25;102363.69;;;4.12;60.99
53506;BME280;39388;50.936;6.848;2023-01-28T14:35:08;102359.44;;;4.11;61.09
53506;BME280;39388;50.936;6.848;2023-01-28T14:37:39;102366.94;;;4.08;61.40
53506;BME280;39388;50.936;6.848;2023-01-28T14:40:12;102362.47;;;4.04;61.71
53506;BME280;39388;50.936;6.848;2023-01-28T14:42:46;102369.63;;;4.11;61.43
53506;BME280;39388;50.936;6.848;2023-01-28T14:51:11;102357.03;;;4.32;61.23
53506;BME280;39388;50.936;6.848;2023-01-28T14:54:09;102346.50;;;4.26;61.37
53506;BME280;39388;50.936;6.848;2023-01-28T14:59:51;102338.91;;;4.27;61.56
53506;BME280;39388;50.936;6.848;2023-01-28T15:02:25;102346.50;;;4.26;61.50
53506;BME280;39388;50.936;6.848;2023-01-28T15:05:08;102345.53;;;4.24;61.17
53506;BME280;39388;50.936;6.848;2023-01-28T15:07:43;102345.34;;;4.19;61.53
53506;BME280;39388;50.936;6.848;2023-01-28T15:10:20;102338.84;;;4.08;61.30
53506;BME280;39388;50.936;6.848;2023-01-28T15:12:55;102332.78;;;4.06;61.43
53506;BME280;39388;50.936;6.848;2023-01-28T15:15:29;102329.66;;;3.93;61.97
53506;BME280;39388;50.936;6.848;2023-01-28T15:18:03;102327.09;;;3.93;61.77
53506;BME280;39388;50.936;6.848;2023-01-28T15:20:35;102319.94;;;3.86;62.46
53506;BME280;39388;50.936;6.848;2023-01-28T15:23:06;102328.31;;;3.83;62.39
53506;BME280;39388;50.936;6.848;2023-01-28T15:25:36;102327.94;;;3.76;62.78
53506;BME280;39388;50.936;6.848;2023-01-28T15:30:53;102304.22;;;3.60;62.43
53506;BME280;39388;50.936;6.848;2023-01-28T15:33:24;102326.53;;;3.64;62.96
53506;BME280;39388;50.936;6.848;2023-01-28T15:35:56;102325.28;;;3.56;63.18
53506;BME280;39388;50.936;6.848;2023-01-28T15:38:27;102321.41;;;3.46;63.42
53506;BME280;39388;50.936;6.848;2023-01-28T15:41:00;102325.44;;;3.43;63.24
53506;BME280;39388;50.936;6.848;2023-01-28T15:43:36;102334.63;;;3.39;63.30
53506;BME280;39388;50.936;6.848;2023-01-28T15:46:10;102332.59;;;3.32;63.41
53506;BME280;39388;50.936;6.848;2023-01-28T15:48:48;102333.22;;;3.28;63.45
53506;BME280;39388;50.936;6.848;2023-01-28T15:51:31;102340.69;;;3.25;63.27
53506;BME280;39388;50.936;6.848;2023-01-28T15:54:06;102348.13;;;3.20;63.63